Time;durP1;ratioP1;P1;durP2;ratioP2;P2;SDS_P1;SDS_P2;PMS_P1;PMS_P2;Temp;Humidity;BMP_temperature;BMP_pressure;BME280_temperature;BME280_humidity;BME280_pressure;Samples;Min_cycle;Max_cycle;Signal;HPM_P1;HPM_P2
2024/01/03 00:02:19;;;;;;;16.52;3.10;;;19.10;17.00;;;;;;5056710;28;20742;-70
2024/01/03 00:04:45;;;;;;;13.02;2.63;;;19.20;14.50;;;;;;5055987;28;20505;-71
2024/01/03 00:07:11;;;;;;;11.48;2.70;;;18.80;11.10;;;;;;5039440;28;20124;-71
2024/01/03 00:09:37;;;;;;;11.70;2.65;;;;;;;;;;5056530;28;20420;-70
2024/01/03 00:12:03;;;;;;;16.67;3.13;;;;;;;;;;5056237;28;20127;-69
2024/01/03 00:14:31;;;;;;;18.17;4.70;;;19.40;8.20;;;;;;5055654;28;20529;-70
2024/01/03 00:17:08;;;;;;;11.00;2.42;;;19.40;10.30;;;;;;5039382;28;20490;-70
2024/01/03 00:19:39;;;;;;;13.00;2.78;;;18.90;5.10;;;;;;5056412;28;20080;-71
2024/01/03 00:22:10;;;;;;;12.75;3.22;;;18.90;6.30;;;;;;5039500;28;20036;-70
2024/01/03 00:24:45;;;;;;;17.35;2.38;;;18.90;7.90;;;;;;5055411;28;20044;-70
2024/01/03 00:27:11;;;;;;;12.80;2.40;;;18.80;5.60;;;;;;5039416;28;20071;-70
2024/01/03 00:29:52;;;;;;;6.65;1.95;;;19.20;4.60;;;;;;5039208;28;20044;-70
2024/01/03 00:32:19;;;;;;;12.50;2.28;;;18.50;3.90;;;;;;5039560;28;20108;-70
2024/01/03 00:34:45;;;;;;;14.15;2.63;;;19.30;9.90;;;;;;5055193;28;20041;-70
2024/01/03 00:37:32;;;;;;;13.25;3.28;;;19.20;11.70;;;;;;5055444;28;20119;-71
2024/01/03 00:39:59;;;;;;;11.57;2.58;;;19.20;8.90;;;;;;5055862;28;20037;-70
2024/01/03 00:42:25;;;;;;;14.77;2.70;;;18.90;10.70;;;;;;5039078;28;20040;-70
2024/01/03 00:44:51;;;;;;;12.65;2.50;;;19.30;10.70;;;;;;5055069;28;20127;-70
2024/01/03 00:47:18;;;;;;;14.70;2.40;;;19.10;10.50;;;;;;5038748;28;20127;-70
2024/01/03 00:49:44;;;;;;;21.55;3.17;;;19.00;12.00;;;;;;5055551;28;20048;-70
2024/01/03 00:52:10;;;;;;;15.48;3.08;;;19.30;12.30;;;;;;5055489;28;20078;-70
2024/01/03 00:54:36;;;;;;;18.10;2.60;;;19.10;11.00;;;;;;5037493;28;20072;-70
2024/01/03 00:57:04;;;;;;;9.75;2.60;;;18.90;11.40;;;;;;5038561;28;20047;-70
2024/01/03 00:59:34;;;;;;;16.67;3.38;;;18.90;9.60;;;;;;5039294;28;20157;-71
2024/01/03 01:02:03;;;;;;;18.38;2.95;;;19.20;9.20;;;;;;5055579;28;20037;-70
2024/01/03 01:04:30;;;;;;;25.17;3.42;;;18.90;7.40;;;;;;5054779;28;20036;-70
2024/01/03 01:06:56;;;;;;;15.60;3.17;;;19.30;9.30;;;;;;5054851;28;20044;-70
2024/01/03 01:09:22;;;;;;;14.95;2.75;;;18.90;8.50;;;;;;5055124;28;20406;-68
2024/01/03 01:11:48;;;;;;;19.45;4.15;;;18.80;8.60;;;;;;5055094;28;20094;-70
2024/01/03 01:14:14;;;;;;;23.90;3.97;;;;;;;;;;5037856;28;20408;-70
2024/01/03 01:16:40;;;;;;;17.75;3.33;;;;;;;;;;5054638;28;20066;-71
2024/01/03 01:19:07;;;;;;;15.45;2.70;;;;;;;;;;5055284;28;20052;-70
2024/01/03 01:21:33;;;;;;;23.35;3.08;;;;;;;;;;5054745;28;20075;-70
2024/01/03 01:23:59;;;;;;;11.77;2.10;;;18.80;5.70;;;;;;5054308;28;20040;-70
2024/01/03 01:26:25;;;;;;;13.32;3.35;;;;;;;;;;5054631;28;20041;-70
2024/01/03 01:28:51;;;;;;;10.07;2.97;;;;;;;;;;5038156;28;20436;-70
2024/01/03 01:31:16;;;;;;;8.48;2.55;;;19.00;1.00;;;;;;5038113;28;20125;-70
2024/01/03 01:33:42;;;;;;;17.42;3.00;;;19.40;1.00;;;;;;5054055;28;20102;-70
2024/01/03 01:36:08;;;;;;;12.73;2.58;;;;;;;;;;5054323;28;20038;-70
2024/01/03 01:38:34;;;;;;;13.82;2.85;;;;;;;;;;5037957;28;20067;-70
2024/01/03 01:40:59;;;;;;;19.27;2.80;;;18.70;1.00;;;;;;5054556;28;20040;-70
2024/01/03 01:43:25;;;;;;;12.40;2.42;;;19.00;1.00;;;;;;5037561;28;20032;-70
2024/01/03 01:45:51;;;;;;;20.02;2.95;;;19.20;1.00;;;;;;5054380;28;20041;-70
2024/01/03 01:48:17;;;;;;;13.55;2.38;;;;;;;;;;5037830;28;20051;-70
2024/01/03 01:50:44;;;;;;;14.30;3.33;;;;;;;;;;5054328;28;20036;-69
2024/01/03 01:53:10;;;;;;;8.73;2.38;;;19.20;1.00;;;;;;5037145;28;20036;-71
2024/01/03 01:55:38;;;;;;;13.85;3.22;;;19.10;1.00;;;;;;5054069;28;20566;-69
2024/01/03 01:58:06;;;;;;;13.38;2.63;;;19.10;1.00;;;;;;5054108;28;20519;-70
2024/01/03 02:00:32;;;;;;;20.10;3.63;;;19.10;1.00;;;;;;5054644;28;20033;-70
2024/01/03 02:02:58;;;;;;;19.55;3.15;;;19.20;1.00;;;;;;5053515;28;20042;-70
2024/01/03 02:05:26;;;;;;;13.57;2.70;;;;;;;;;;5054062;28;20097;-70
2024/01/03 02:07:52;;;;;;;12.65;3.25;;;18.90;1.00;;;;;;5053939;28;20045;-70
2024/01/03 02:10:18;;;;;;;17.65;2.95;;;19.20;1.00;;;;;;5054354;28;20178;-70
2024/01/03 02:12:43;;;;;;;11.02;2.90;;;19.00;1.00;;;;;;5053435;28;20040;-70
2024/01/03 02:15:09;;;;;;;15.23;2.85;;;19.20;1.00;;;;;;5037272;28;20412;-70
2024/01/03 02:17:37;;;;;;;17.42;3.60;;;19.50;1.00;;;;;;5053622;28;20033;-70
2024/01/03 02:20:04;;;;;;;12.98;2.15;;;19.10;1.00;;;;;;5053824;28;20137;-70
2024/01/03 02:22:30;;;;;;;17.25;2.90;;;19.50;1.00;;;;;;5037292;28;20075;-70
2024/01/03 02:24:55;;;;;;;16.10;3.00;;;19.10;1.00;;;;;;5053526;28;20048;-70
2024/01/03 02:27:21;;;;;;;14.25;3.20;;;18.90;1.00;;;;;;5053501;28;20564;-69
2024/01/03 02:29:47;;;;;;;7.43;1.92;;;;;;;;;;5054001;28;20044;-70
2024/01/03 02:32:13;;;;;;;21.10;2.70;;;;;;;;;;5053710;28;20097;-71
2024/01/03 02:34:39;;;;;;;18.95;3.47;;;;;;;;;;5052976;28;20131;-70
2024/01/03 02:37:09;;;;;;;13.50;2.28;;;19.30;1.00;;;;;;5053660;28;20392;-70
2024/01/03 02:39:35;;;;;;;16.25;2.58;;;19.40;1.00;;;;;;5053926;28;20036;-70
2024/01/03 02:42:00;;;;;;;15.70;2.85;;;19.40;1.00;;;;;;5037012;28;20040;-70
2024/01/03 02:44:27;;;;;;;13.65;2.47;;;19.40;1.00;;;;;;5053299;28;20137;-70
2024/01/03 02:46:54;;;;;;;23.55;3.65;;;;;;;;;;5053270;28;20547;-70
2024/01/03 02:49:20;;;;;;;11.25;2.38;;;;;;;;;;5053754;28;20041;-70
2024/01/03 02:51:45;;;;;;;13.43;2.95;;;19.30;1.00;;;;;;5053640;28;20043;-70
2024/01/03 02:54:11;;;;;;;15.30;2.30;;;19.30;1.00;;;;;;5052933;28;20127;-70
2024/01/03 02:56:40;;;;;;;14.80;2.63;;;19.40;1.00;;;;;;5053220;28;20389;-70
2024/01/03 02:59:06;;;;;;;13.20;2.78;;;19.40;1.00;;;;;;5036929;28;20036;-70
2024/01/03 03:01:31;;;;;;;15.13;2.40;;;19.30;1.00;;;;;;5036938;28;20038;-70
2024/01/03 03:03:57;;;;;;;15.30;2.63;;;19.20;1.00;;;;;;5053118;28;20123;-70
2024/01/03 03:06:23;;;;;;;11.05;2.08;;;;;;;;;;5053099;28;20049;-70
2024/01/03 03:08:49;;;;;;;12.30;2.53;;;;;;;;;;5053387;28;20041;-69
2024/01/03 03:11:14;;;;;;;13.18;2.35;;;19.20;1.00;;;;;;5054661;28;20496;-70
2024/01/03 03:13:40;;;;;;;19.67;2.67;;;19.30;1.00;;;;;;5055615;28;20101;-70
2024/01/03 03:16:07;;;;;;;9.43;2.10;;;19.40;1.00;;;;;;5037680;28;20036;-70
2024/01/03 03:18:33;;;;;;;17.45;4.40;;;19.20;1.00;;;;;;5057603;28;20648;-70
2024/01/03 03:21:00;;;;;;;13.50;2.83;;;;;;;;;;5057285;28;20037;-71
2024/01/03 03:23:26;;;;;;;14.00;2.40;;;19.20;1.00;;;;;;5040323;28;20040;-70
2024/01/03 03:25:52;;;;;;;16.42;2.47;;;;;;;;;;5057020;28;20036;-70
2024/01/03 03:28:18;;;;;;;17.00;3.50;;;;;;;;;;5056990;28;20071;-71
2024/01/03 03:30:44;;;;;;;11.57;2.53;;;;;;;;;;5056976;28;20045;-70
2024/01/03 03:33:10;;;;;;;15.57;2.97;;;;;;;;;;5039771;28;20041;-70
2024/01/03 03:35:36;;;;;;;12.50;2.70;;;;;;;;;;5040274;28;20094;-70
2024/01/03 03:38:01;;;;;;;14.57;2.47;;;19.20;1.00;;;;;;5056793;28;20496;-70
2024/01/03 03:40:27;;;;;;;13.95;2.15;;;;;;;;;;5057022;28;20040;-70
2024/01/03 03:42:53;;;;;;;10.55;2.17;;;19.20;1.00;;;;;;5039904;28;20509;-70
2024/01/03 03:45:18;;;;;;;14.52;2.78;;;19.30;1.00;;;;;;5056965;28;20037;-70
2024/01/03 03:47:46;;;;;;;10.43;2.25;;;;;;;;;;5039991;28;20618;-71
2024/01/03 03:50:11;;;;;;;17.83;3.50;;;19.10;1.00;;;;;;5040361;28;20044;-70
2024/01/03 03:52:39;;;;;;;11.30;2.00;;;19.40;1.00;;;;;;5056378;28;20051;-70
2024/01/03 03:55:06;;;;;;;12.30;2.22;;;19.40;1.00;;;;;;5040137;28;20041;-70
2024/01/03 03:57:32;;;;;;;12.55;2.63;;;;;;;;;;5056360;28;20052;-70
2024/01/03 03:59:57;;;;;;;9.90;2.03;;;19.40;1.00;;;;;;5039845;28;20150;-70
2024/01/03 04:02:24;;;;;;;13.20;2.78;;;;;;;;;;5056444;28;20476;-70
2024/01/03 04:04:51;;;;;;;15.02;3.10;;;;;;;;;;5055741;28;20040;-70
2024/01/03 04:07:16;;;;;;;12.90;2.30;;;19.10;1.00;;;;;;5056324;28;20131;-70
2024/01/03 04:09:45;;;;;;;15.02;3.10;;;19.30;1.00;;;;;;5056401;28;20132;-70
2024/01/03 04:12:11;;;;;;;13.18;2.88;;;19.30;1.00;;;;;;5056268;28;20447;-70
2024/01/03 04:14:40;;;;;;;10.75;2.30;;;19.00;1.40;;;;;;5055471;28;20033;-70
2024/01/03 04:17:06;;;;;;;9.93;2.45;;;;;;;;;;5072183;22;20111;-70
2024/01/03 04:19:31;;;;;;;9.48;2.10;;;19.20;6.90;;;;;;5032880;28;20042;-70
2024/01/03 04:21:58;;;;;;;12.05;1.98;;;19.20;7.50;;;;;;5033103;28;20029;-70
2024/01/03 04:24:23;;;;;;;10.13;2.10;;;19.20;8.80;;;;;;5032361;28;20038;-70
2024/01/03 04:26:49;;;;;;;9.43;1.67;;;;;;;;;;5032354;28;20044;-70
2024/01/03 04:29:15;;;;;;;5.72;1.67;;;19.30;6.00;;;;;;5031963;28;20044;-70
2024/01/03 04:31:41;;;;;;;8.20;2.13;;;;;;;;;;5032713;28;20527;-71
2024/01/03 04:34:07;;;;;;;9.20;1.55;;;;;;;;;;5031939;28;20111;-70
2024/01/03 04:36:33;;;;;;;10.23;2.20;;;;;;;;;;5032337;28;20501;-70
2024/01/03 04:38:59;;;;;;;15.07;3.25;;;;;;;;;;5032503;28;20044;-70
2024/01/03 04:41:24;;;;;;;12.30;2.25;;;19.20;16.10;;;;;;5015895;28;20124;-70
2024/01/03 04:43:50;;;;;;;15.60;3.00;;;19.00;18.30;;;;;;5033199;28;20056;-68
2024/01/03 04:46:15;;;;;;;15.82;3.58;;;19.40;23.30;;;;;;5032500;28;20041;-70
2024/01/03 04:48:41;;;;;;;14.65;2.70;;;;;;;;;;5033450;28;20135;-70
2024/01/03 04:51:09;;;;;;;14.77;2.55;;;;;;;;;;5032668;28;20041;-70
2024/01/03 04:53:35;;;;;;;8.45;1.90;;;;;;;;;;5031826;28;20068;-70
2024/01/03 04:56:00;;;;;;;13.43;2.88;;;18.90;30.70;;;;;;5032110;28;20611;-70
2024/01/03 04:58:26;;;;;;;9.55;3.33;;;;;;;;;;5032380;28;20132;-70
2024/01/03 05:00:52;;;;;;;9.18;2.50;;;19.20;36.80;;;;;;5032135;28;20037;-70
2024/01/03 05:03:20;;;;;;;11.18;2.35;;;;;;;;;;5031725;28;20124;-71
2024/01/03 05:05:46;;;;;;;11.73;2.65;;;;;;;;;;5033265;28;20049;-70
2024/01/03 05:08:12;;;;;;;10.45;2.13;;;;;;;;;;5031851;28;20489;-71
2024/01/03 05:10:38;;;;;;;8.38;2.00;;;;;;;;;;5031850;28;20041;-70
2024/01/03 05:13:04;;;;;;;9.40;1.83;;;18.80;56.00;;;;;;5031390;28;20297;-70
2024/01/03 05:15:29;;;;;;;11.45;2.15;;;18.90;57.50;;;;;;5031651;28;20073;-70
2024/01/03 05:17:55;;;;;;;14.93;2.67;;;19.20;61.10;;;;;;5015508;28;20053;-70
2024/01/03 05:20:21;;;;;;;14.45;2.88;;;;;;;;;;5031757;28;20511;-70
2024/01/03 05:22:47;;;;;;;28.63;5.00;;;;;;;;;;5031074;28;20041;-71
2024/01/03 05:25:13;;;;;;;24.15;3.85;;;;;;;;;;5031775;28;20098;-69
2024/01/03 05:27:39;;;;;;;20.92;4.40;;;;;;;;;;5014902;28;20072;-70
2024/01/03 05:30:05;;;;;;;27.25;5.10;;;19.20;39.40;;;;;;5031845;28;20057;-70
2024/01/03 05:32:31;;;;;;;28.75;5.45;;;;;;;;;;5031686;28;20046;-70
2024/01/03 05:34:57;;;;;;;31.75;5.13;;;;;;;;;;5030773;28;20041;-70
2024/01/03 05:37:23;;;;;;;24.27;4.40;;;;;;;;;;5031441;28;20045;-71
2024/01/03 05:39:49;;;;;;;21.00;4.38;;;;;;;;;;5030929;28;20084;-70
2024/01/03 05:42:15;;;;;;;25.63;4.32;;;19.40;15.40;;;;;;5031349;28;20249;-70
2024/01/03 05:44:41;;;;;;;20.00;3.60;;;;;;;;;;5030742;28;20467;-70
2024/01/03 05:47:07;;;;;;;30.45;5.30;;;19.20;14.30;;;;;;5014713;28;20045;-70
2024/01/03 05:49:34;;;;;;;21.15;4.20;;;19.30;14.10;;;;;;5031669;28;20120;-70
2024/01/03 05:52:00;;;;;;;22.80;3.92;;;;;;;;;;5031187;28;20152;-70
2024/01/03 05:54:26;;;;;;;21.42;4.88;;;19.10;14.40;;;;;;5030610;28;20550;-70
2024/01/03 05:56:54;;;;;;;25.50;4.00;;;19.20;11.90;;;;;;5014384;28;20072;-70
2024/01/03 05:59:20;;;;;;;19.58;4.20;;;19.60;10.60;;;;;;5031285;28;20045;-70
2024/01/03 06:01:46;;;;;;;26.08;3.63;;;19.10;10.10;;;;;;5014466;28;20095;-70
2024/01/03 06:04:14;;;;;;;28.50;4.93;;;19.40;13.80;;;;;;5030452;28;20045;-70
2024/01/03 06:06:41;;;;;;;19.40;3.42;;;;;;;;;;5030956;28;20041;-70
2024/01/03 06:09:07;;;;;;;29.92;4.22;;;19.30;12.00;;;;;;5030828;28;20564;-70
2024/01/03 06:11:35;;;;;;;27.80;4.53;;;19.40;11.60;;;;;;5030788;28;20494;-70
2024/01/03 06:14:01;;;;;;;32.53;5.38;;;19.40;8.00;;;;;;5030148;28;20044;-70
2024/01/03 06:16:26;;;;;;;16.88;3.92;;;19.10;8.10;;;;;;5030685;28;20042;-70
2024/01/03 06:18:52;;;;;;;18.58;3.72;;;19.20;8.80;;;;;;5032080;28;20040;-70
2024/01/03 06:21:18;;;;;;;24.05;3.78;;;19.30;10.10;;;;;;5030726;28;20493;-70
2024/01/03 06:23:44;;;;;;;19.45;3.47;;;19.20;8.80;;;;;;5030369;28;20129;-71
2024/01/03 06:26:10;;;;;;;22.17;4.13;;;;;;;;;;5031122;28;20081;-71
2024/01/03 06:28:36;;;;;;;27.02;4.22;;;19.40;9.90;;;;;;5030468;28;20045;-70
2024/01/03 06:31:02;;;;;;;23.83;5.35;;;19.20;7.70;;;;;;5030684;28;20087;-70
2024/01/03 06:33:28;;;;;;;31.38;5.22;;;19.60;10.00;;;;;;5013395;28;20037;-70
2024/01/03 06:35:54;;;;;;;36.15;5.07;;;19.20;13.30;;;;;;5030402;28;20051;-70
2024/01/03 06:38:20;;;;;;;25.20;4.50;;;;;;;;;;5030535;28;20576;-70
2024/01/03 06:40:45;;;;;;;25.60;4.05;;;19.20;13.40;;;;;;5030410;28;20133;-70
2024/01/03 06:43:11;;;;;;;36.13;6.43;;;19.20;15.60;;;;;;5029867;28;20111;-70
2024/01/03 06:45:37;;;;;;;24.20;5.05;;;19.50;14.70;;;;;;5031575;28;20069;-70
2024/01/03 06:48:03;;;;;;;25.75;4.78;;;19.30;11.30;;;;;;5031568;28;20048;-70
2024/01/03 06:50:29;;;;;;;24.15;4.78;;;;;;;;;;5029781;28;20037;-71
2024/01/03 06:52:55;;;;;;;20.70;4.38;;;;;;;;;;5029524;28;20394;-70
2024/01/03 06:55:20;;;;;;;23.42;4.65;;;19.60;14.80;;;;;;5031532;28;20416;-70
2024/01/03 06:57:48;;;;;;;17.80;3.63;;;19.30;11.10;;;;;;5030042;28;20041;-70
2024/01/03 07:00:14;;;;;;;20.60;3.47;;;19.40;9.60;;;;;;5030502;28;20393;-70
2024/01/03 07:02:40;;;;;;;21.30;3.42;;;19.50;8.00;;;;;;5029845;28;20041;-70
2024/01/03 07:05:06;;;;;;;15.15;3.30;;;19.20;6.20;;;;;;5031500;28;20048;-70
2024/01/03 07:07:32;;;;;;;20.80;3.53;;;;;;;;;;5029798;28;20080;-70
2024/01/03 07:09:58;;;;;;;14.40;3.42;;;;;;;;;;5013748;28;20046;-70
2024/01/03 07:12:24;;;;;;;21.23;4.28;;;;;;;;;;5030332;28;20481;-70
2024/01/03 07:14:50;;;;;;;13.45;2.53;;;;;;;;;;5029793;28;20049;-71
2024/01/03 07:17:15;;;;;;;17.38;4.07;;;19.50;1.00;;;;;;5014150;28;20084;-70
2024/01/03 07:19:41;;;;;;;17.70;3.85;;;19.60;1.00;;;;;;5030342;28;20064;-70
2024/01/03 07:22:06;;;;;;;21.95;3.78;;;19.30;1.00;;;;;;5030238;28;20041;-70
2024/01/03 07:24:33;;;;;;;20.08;3.80;;;19.30;1.00;;;;;;5029763;28;20037;-69
2024/01/03 07:26:59;;;;;;;23.55;4.35;;;19.30;1.00;;;;;;5029808;28;20045;-70
2024/01/03 07:29:25;;;;;;;20.58;3.70;;;;;;;;;;5030153;28;20504;-70
2024/01/03 07:31:51;;;;;;;18.98;4.78;;;;;;;;;;5029894;28;20045;-70
2024/01/03 07:34:17;;;;;;;18.33;3.28;;;;;;;;;;5029360;28;20049;-71
2024/01/03 07:36:42;;;;;;;20.10;4.25;;;19.30;1.00;;;;;;5013129;28;20107;-70
2024/01/03 07:39:10;;;;;;;21.40;3.97;;;19.50;1.00;;;;;;5030206;28;20044;-70
2024/01/03 07:41:36;;;;;;;20.08;4.72;;;19.50;1.00;;;;;;5029844;28;20049;-70
2024/01/03 07:44:02;;;;;;;16.67;3.63;;;19.60;6.60;;;;;;5029486;28;20045;-70
2024/01/03 07:46:28;;;;;;;14.82;4.25;;;19.10;8.10;;;;;;5030932;28;20041;-70
2024/01/03 07:48:54;;;;;;;21.42;4.47;;;;;;;;;;5029979;28;20041;-71
2024/01/03 07:51:20;;;;;;;20.13;4.57;;;;;;;;;;5029680;28;20041;-71
2024/01/03 07:53:46;;;;;;;13.57;2.78;;;;;;;;;;5029148;28;20049;-70
2024/01/03 07:56:12;;;;;;;18.80;2.70;;;19.40;4.70;;;;;;5029584;28;20034;-70
2024/01/03 07:58:38;;;;;;;15.20;3.00;;;;;;;;;;5029621;28;20084;-71
2024/01/03 08:01:03;;;;;;;21.88;4.43;;;19.20;8.00;;;;;;5029671;28;20038;-70
2024/01/03 08:03:29;;;;;;;14.35;3.05;;;19.40;6.50;;;;;;5031864;28;20034;-70
2024/01/03 08:05:55;;;;;;;13.85;2.92;;;19.00;9.50;;;;;;5033060;28;20568;-71
2024/01/03 08:08:20;;;;;;;24.92;2.85;;;19.40;16.00;;;;;;5033072;28;20034;-71
2024/01/03 08:10:46;;;;;;;22.48;2.97;;;;;;;;;;5033081;28;20095;-71
2024/01/03 08:13:12;;;;;;;12.73;2.97;;;;;;;;;;5033701;28;20375;-72
2024/01/03 08:15:38;;;;;;;15.40;2.63;;;;;;;;;;5032809;28;20045;-71
2024/01/03 08:18:04;;;;;;;12.18;2.78;;;19.30;20.00;;;;;;5032647;28;20045;-71
2024/01/03 08:20:30;;;;;;;11.90;2.95;;;19.20;26.10;;;;;;5032888;28;20049;-70
2024/01/03 08:22:55;;;;;;;14.65;3.00;;;19.30;29.50;;;;;;5032311;28;20042;-71
2024/01/03 08:25:22;;;;;;;11.73;2.95;;;19.20;37.20;;;;;;5032912;28;20041;-71
2024/01/03 08:27:48;;;;;;;19.80;3.78;;;19.10;42.40;;;;;;5032954;28;20408;-70
2024/01/03 08:30:14;;;;;;;19.75;3.97;;;19.10;45.70;;;;;;5032983;28;20041;-71
2024/01/03 08:32:40;;;;;;;17.30;3.40;;;;;;;;;;5032490;28;20038;-70
2024/01/03 08:35:07;;;;;;;19.50;3.42;;;19.20;40.70;;;;;;5032696;28;20060;-71
2024/01/03 08:37:33;;;;;;;21.40;3.17;;;;;;;;;;5032397;28;20040;-71
2024/01/03 08:40:00;;;;;;;19.02;3.50;;;;;;;;;;5032824;28;20120;-71
2024/01/03 08:42:26;;;;;;;23.65;3.20;;;19.20;34.70;;;;;;5032534;28;20120;-71
2024/01/03 08:44:52;;;;;;;21.30;2.97;;;;;;;;;;5031981;28;20473;-71
2024/01/03 08:47:18;;;;;;;29.45;4.07;;;;;;;;;;5032178;28;20046;-70
2024/01/03 08:49:44;;;;;;;21.45;3.97;;;;;;;;;;5032450;28;20046;-71
2024/01/03 08:52:10;;;;;;;23.83;3.85;;;;;;;;;;5032383;28;20042;-70
2024/01/03 08:54:36;;;;;;;24.38;4.50;;;;;;;;;;5031935;28;20572;-71
2024/01/03 08:57:02;;;;;;;20.67;3.42;;;;;;;;;;5031921;28;20120;-71
2024/01/03 08:59:28;;;;;;;24.90;3.42;;;;;;;;;;5015701;28;20129;-70
2024/01/03 09:01:56;;;;;;;16.08;3.30;;;19.00;25.30;;;;;;5015777;28;20129;-70
2024/01/03 09:04:22;;;;;;;19.17;3.28;;;19.10;21.60;;;;;;5015028;28;20047;-69
2024/01/03 09:06:50;;;;;;;21.92;3.78;;;19.00;19.90;;;;;;5031819;28;20501;-70
2024/01/03 09:09:16;;;;;;;18.10;3.20;;;;;;;;;;5032013;28;20050;-70
2024/01/03 09:11:42;;;;;;;17.50;3.60;;;19.10;19.40;;;;;;5032129;28;20037;-70
2024/01/03 09:14:08;;;;;;;21.65;3.35;;;19.50;18.00;;;;;;5030841;28;20088;-70
2024/01/03 09:16:34;;;;;;;21.75;4.65;;;;;;;;;;5031420;28;20040;-70
2024/01/03 09:18:59;;;;;;;20.08;3.28;;;19.00;16.10;;;;;;5032071;28;20398;-71
2024/01/03 09:21:30;;;;;;;23.30;4.03;;;;;;;;;;5032008;28;20045;-70
2024/01/03 09:23:56;;;;;;;17.27;3.08;;;;;;;;;;5031210;28;20048;-70
2024/01/03 09:26:25;;;;;;;17.02;3.17;;;19.20;10.00;;;;;;5031422;28;20124;-70
2024/01/03 09:28:52;;;;;;;15.30;2.72;;;19.20;6.00;;;;;;5031630;28;20038;-70
2024/01/03 09:31:18;;;;;;;16.83;3.38;;;;;;;;;;5031492;28;20091;-70
2024/01/03 09:33:44;;;;;;;16.73;2.90;;;;;;;;;;5030871;28;20208;-70
2024/01/03 09:36:18;;;;;;;16.05;2.45;;;19.30;1.00;;;;;;5031435;28;20685;-70
2024/01/03 09:38:44;;;;;;;20.40;2.80;;;;;;;;;;5031349;28;20513;-70
2024/01/03 09:41:12;;;;;;;16.33;2.63;;;19.50;1.00;;;;;;5031359;28;20033;-70
2024/01/03 09:43:44;;;;;;;10.48;2.28;;;19.40;1.00;;;;;;5030689;28;20095;-69
2024/01/03 09:46:11;;;;;;;12.95;3.35;;;;;;;;;;5031165;28;20076;-70
2024/01/03 09:48:41;;;;;;;9.32;2.35;;;19.30;1.00;;;;;;5030993;28;20048;-70
2024/01/03 09:51:07;;;;;;;15.25;2.80;;;19.50;1.00;;;;;;5031252;28;20092;-70
2024/01/03 09:53:33;;;;;;;13.70;3.17;;;19.40;1.00;;;;;;5030862;28;20111;-67
2024/01/03 09:56:00;;;;;;;19.55;3.40;;;19.70;1.00;;;;;;5014382;28;20045;-69
2024/01/03 09:58:27;;;;;;;14.77;2.63;;;19.40;1.00;;;;;;5014549;28;20045;-70
2024/01/03 10:00:53;;;;;;;15.15;3.10;;;;;;;;;;5031117;28;20041;-71
2024/01/03 10:03:19;;;;;;;16.73;2.65;;;;;;;;;;5030386;28;20042;-71
2024/01/03 10:05:45;;;;;;;11.70;2.78;;;19.50;1.00;;;;;;5030921;28;20536;-70
2024/01/03 10:08:20;;;;;;;9.90;2.20;;;19.70;1.00;;;;;;5031110;28;20041;-69
2024/01/03 10:10:46;;;;;;;13.43;2.13;;;19.60;1.00;;;;;;5030885;28;20447;-70
2024/01/03 10:13:19;;;;;;;15.30;2.80;;;19.70;1.00;;;;;;5030178;28;20041;-71
2024/01/03 10:15:46;;;;;;;8.90;2.38;;;19.80;1.00;;;;;;5030702;28;20080;-69
2024/01/03 10:18:15;;;;;;;9.57;2.22;;;19.90;1.00;;;;;;5031373;28;20443;-70
2024/01/03 10:20:42;;;;;;;15.65;2.85;;;19.80;1.00;;;;;;5030720;28;20034;-70
2024/01/03 10:23:09;;;;;;;17.10;4.35;;;;;;;;;;5030001;28;20141;-70
2024/01/03 10:25:35;;;;;;;15.00;2.55;;;19.70;1.00;;;;;;5013441;28;20049;-71
2024/01/03 10:28:02;;;;;;;11.13;2.10;;;19.80;1.00;;;;;;5030760;28;20132;-71
2024/01/03 10:30:28;;;;;;;13.27;2.70;;;19.60;1.00;;;;;;5031933;28;20037;-70
2024/01/03 10:33:04;;;;;;;16.40;2.45;;;19.50;1.00;;;;;;5030032;28;20030;-70
2024/01/03 10:35:32;;;;;;;15.52;3.03;;;19.60;1.00;;;;;;5030306;28;20049;-70
2024/01/03 10:38:00;;;;;;;14.27;2.10;;;19.90;1.00;;;;;;5030458;28;20061;-70
2024/01/03 10:40:28;;;;;;;11.35;2.97;;;19.70;1.00;;;;;;5030680;28;20095;-70
2024/01/03 10:42:54;;;;;;;14.27;2.72;;;;;;;;;;5029831;28;20091;-71
2024/01/03 10:45:20;;;;;;;14.13;2.92;;;20.00;1.00;;;;;;5030673;28;20476;-70
2024/01/03 10:47:46;;;;;;;16.58;3.42;;;20.00;1.00;;;;;;5030121;28;20089;-71
2024/01/03 10:50:12;;;;;;;25.38;3.78;;;19.90;1.00;;;;;;5030355;28;20041;-71
2024/01/03 10:52:42;;;;;;;20.90;3.88;;;19.70;1.00;;;;;;5030958;28;20041;-70
2024/01/03 10:55:10;;;;;;;22.90;4.72;;;19.70;1.00;;;;;;5013772;28;20053;-71
2024/01/03 10:57:39;;;;;;;27.38;5.28;;;20.00;1.00;;;;;;5030444;28;20436;-71
2024/01/03 11:00:25;;;;;;;21.05;4.22;;;19.80;1.00;;;;;;5030648;28;20049;-71
2024/01/03 11:03:10;;;;;;;17.98;3.67;;;19.60;1.00;;;;;;5029946;28;20107;-71
2024/01/03 11:06:25;;;;;;;22.52;5.10;;;19.90;1.00;;;;;;5030399;28;20045;-70
2024/01/03 11:08:57;;;;;;;19.50;3.63;;;19.90;1.00;;;;;;5008133;28;20480;-71
2024/01/03 11:11:34;;;;;;;23.73;3.20;;;19.50;1.00;;;;;;5013670;28;20037;-70
2024/01/03 11:14:01;;;;;;;19.38;3.97;;;19.80;1.00;;;;;;5029784;28;20041;-71
2024/01/03 11:16:39;;;;;;;15.82;3.78;;;19.60;1.00;;;;;;5029802;28;20033;-71
2024/01/03 11:19:09;;;;;;;13.10;3.30;;;19.80;1.00;;;;;;5029797;28;20045;-70
2024/01/03 11:21:35;;;;;;;18.80;3.85;;;19.90;1.00;;;;;;5029339;28;20497;-71
2024/01/03 11:24:26;;;;;;;16.08;2.90;;;19.70;1.00;;;;;;5028843;28;20080;-71
2024/01/03 11:27:04;;;;;;;16.05;3.47;;;19.70;1.00;;;;;;5028753;28;20088;-70
2024/01/03 11:29:35;;;;;;;23.58;3.80;;;19.70;1.00;;;;;;5029391;28;20448;-70
2024/01/03 11:32:26;;;;;;;21.48;4.07;;;19.50;1.00;;;;;;5030308;28;20485;-71
2024/01/03 11:34:52;;;;;;;21.50;4.15;;;;;;;;;;5012114;28;20383;-70
2024/01/03 11:37:18;;;;;;;25.08;4.55;;;19.60;1.00;;;;;;5029984;28;20037;-71
2024/01/03 11:39:50;;;;;;;19.38;3.35;;;19.80;1.00;;;;;;5032467;28;20412;-71
2024/01/03 11:42:37;;;;;;;17.05;3.40;;;;;;;;;;5032325;28;20041;-71
2024/01/03 11:45:08;;;;;;;19.02;2.97;;;19.70;1.00;;;;;;5015946;28;20041;-70
2024/01/03 11:47:34;;;;;;;20.58;3.63;;;;;;;;;;5032264;28;20041;-70
2024/01/03 11:50:04;;;;;;;19.63;3.50;;;19.90;1.00;;;;;;5032515;28;20041;-71
2024/01/03 11:52:32;;;;;;;31.95;3.72;;;19.90;1.00;;;;;;5032238;28;20081;-70
2024/01/03 11:55:07;;;;;;;22.70;4.80;;;19.90;1.00;;;;;;5031576;28;20042;-70
2024/01/03 11:57:45;;;;;;;19.85;4.22;;;19.90;1.00;;;;;;5015504;28;20037;-70
2024/01/03 12:00:13;;;;;;;27.83;5.75;;;19.80;1.00;;;;;;5032451;28;20033;-71
2024/01/03 12:02:48;;;;;;;19.02;4.18;;;19.70;1.00;;;;;;5031506;28;20033;-70
2024/01/03 12:05:14;;;;;;;17.27;3.53;;;19.90;1.00;;;;;;5032240;28;20080;-71
2024/01/03 12:07:40;;;;;;;17.35;3.45;;;;;;;;;;5015243;28;20098;-71
2024/01/03 12:10:10;;;;;;;20.50;2.72;;;19.90;1.00;;;;;;5031932;28;20136;-71
2024/01/03 12:12:36;;;;;;;13.13;3.28;;;19.60;1.00;;;;;;5031922;28;20045;-71
2024/01/03 12:15:02;;;;;;;17.35;3.25;;;19.60;1.00;;;;;;5031501;28;20041;-70
2024/01/03 12:17:29;;;;;;;21.08;3.47;;;19.70;1.00;;;;;;4995078;28;1065075;-70
2024/01/03 12:20:09;;;;;;;21.13;4.68;;;19.80;1.00;;;;;;5032960;28;20045;-70
2024/01/03 12:22:35;;;;;;;17.33;3.05;;;19.90;1.00;;;;;;5016329;28;20497;-70
2024/01/03 12:25:01;;;;;;;17.40;3.25;;;20.00;1.00;;;;;;5032608;28;20084;-70
2024/01/03 12:27:27;;;;;;;19.05;3.75;;;20.00;1.00;;;;;;5032867;28;20037;-71
2024/01/03 12:30:16;;;;;;;23.73;3.78;;;19.90;1.00;;;;;;5016311;28;20128;-71
2024/01/03 12:32:43;;;;;;;25.80;4.35;;;19.80;1.00;;;;;;5032139;28;20072;-72
2024/01/03 12:35:09;;;;;;;19.15;3.42;;;19.60;1.00;;;;;;5032647;28;20071;-71
2024/01/03 12:37:35;;;;;;;22.27;3.88;;;;;;;;;;5032394;28;20461;-71
2024/01/03 12:40:00;;;;;;;29.88;5.07;;;19.90;1.00;;;;;;5016270;28;20042;-70
2024/01/03 12:42:26;;;;;;;17.38;3.55;;;19.70;1.00;;;;;;5016108;28;20044;-71
2024/01/03 12:44:51;;;;;;;21.83;3.38;;;19.70;1.00;;;;;;5031870;28;20140;-70
2024/01/03 12:47:17;;;;;;;19.20;4.15;;;19.90;1.00;;;;;;5032254;28;20052;-71
2024/01/03 12:49:44;;;;;;;22.33;3.67;;;;;;;;;;5031449;28;20044;-71
2024/01/03 12:52:10;;;;;;;22.40;4.88;;;19.90;1.00;;;;;;5032597;28;20049;-72
2024/01/03 12:54:37;;;;;;;23.08;4.10;;;;;;;;;;5031857;28;20386;-71
2024/01/03 12:57:08;;;;;;;21.30;4.32;;;19.90;1.00;;;;;;5033280;28;20048;-72
2024/01/03 12:59:44;;;;;;;16.70;3.20;;;19.70;1.00;;;;;;5032439;28;20034;-72
2024/01/03 13:02:10;;;;;;;19.75;3.90;;;19.90;1.00;;;;;;5033481;28;20047;-72
2024/01/03 13:04:37;;;;;;;16.40;3.80;;;19.90;1.00;;;;;;5031865;28;20136;-72
2024/01/03 13:07:03;;;;;;;27.13;4.15;;;19.70;1.00;;;;;;5031800;28;20056;-71
2024/01/03 13:09:28;;;;;;;23.83;4.20;;;19.90;1.00;;;;;;5032081;28;20046;-72
2024/01/03 13:11:54;;;;;;;14.38;3.22;;;19.90;1.00;;;;;;5032257;28;20045;-71
2024/01/03 13:14:20;;;;;;;23.35;3.95;;;;;;;;;;5031354;28;20048;-71
2024/01/03 13:16:45;;;;;;;15.63;3.42;;;19.70;1.00;;;;;;5031579;28;20779;-71